Time;durP1;ratioP1;P1;durP2;ratioP2;P2;SDS_P1;SDS_P2;PMS_P1;PMS_P2;Temp;Humidity;BMP_temperature;BMP_pressure;BME280_temperature;BME280_humidity;BME280_pressure;Samples;Min_cycle;Max_cycle;Signal;HPM_P1;HPM_P2
2021/12/05 00:25:09;;;;;;;10.93;2.30;;;13.10;99.90;;;;;;4933933;29;20054;-75
2021/12/05 00:35:52;;;;;;;19.40;2.78;;;13.30;99.90;;;;;;4922360;29;20148;-76
2021/12/05 01:05:18;;;;;;;11.88;2.25;;;13.60;99.90;;;;;;4932639;29;20046;-75
2021/12/05 01:15:26;;;;;;;11.77;2.20;;;13.60;99.90;;;;;;4866503;29;20048;-76
2021/12/05 01:18:31;;;;;;;16.92;2.65;;;13.60;99.90;;;;;;4932430;29;20043;-74
2021/12/05 01:21:37;;;;;;;17.92;2.90;;;13.60;99.90;;;;;;4932496;29;20055;-74
2021/12/05 01:27:59;;;;;;;24.40;3.30;;;13.70;99.90;;;;;;4933714;29;20527;-75
2021/12/05 01:34:47;;;;;;;16.95;2.40;;;13.80;99.90;;;;;;4936519;29;20062;-75
2021/12/05 02:11:10;;;;;;;20.38;2.50;;;13.90;99.90;;;;;;4935139;29;20043;-75
2021/12/05 02:41:10;;;;;;;9.73;1.90;;;14.00;99.90;;;;;;4934516;29;20408;-76
2021/12/05 02:44:23;;;;;;;16.17;2.70;;;14.00;99.90;;;;;;4934635;29;20050;-76
2021/12/05 02:47:28;;;;;;;21.55;2.47;;;14.00;99.90;;;;;;4934826;29;20054;-76
2021/12/05 02:50:34;;;;;;;22.48;2.92;;;14.00;99.90;;;;;;4934513;29;20042;-74
2021/12/05 02:53:46;;;;;;;19.02;2.85;;;14.10;99.90;;;;;;4934538;29;20050;-74
2021/12/05 02:56:52;;;;;;;25.40;3.45;;;14.10;99.90;;;;;;4934815;29;20411;-75
2021/12/05 02:59:58;;;;;;;21.85;2.80;;;14.10;99.90;;;;;;4935455;29;20074;-74
2021/12/05 03:03:05;;;;;;;27.55;3.20;;;14.10;99.90;;;;;;4934287;29;20039;-76
2021/12/05 03:06:23;;;;;;;24.52;3.38;;;14.20;99.90;;;;;;4934097;29;20051;-76
2021/12/05 03:09:27;;;;;;;23.33;3.42;;;14.20;99.90;;;;;;4934898;29;20047;-77
2021/12/05 03:12:38;;;;;;;22.63;2.33;;;14.20;99.90;;;;;;4935020;29;20416;-75
2021/12/05 03:15:42;;;;;;;21.85;2.85;;;14.20;99.90;;;;;;4935116;29;20051;-75
2021/12/05 03:18:46;;;;;;;27.33;3.00;;;14.20;99.90;;;;;;4933690;29;20043;-76
2021/12/05 03:21:52;;;;;;;18.48;2.78;;;14.20;99.90;;;;;;4935014;29;20055;-76
2021/12/05 03:24:59;;;;;;;15.63;2.40;;;14.20;99.90;;;;;;4934284;29;20499;-76
2021/12/05 03:28:05;;;;;;;21.27;2.85;;;14.20;99.90;;;;;;4933936;29;20046;-74
2021/12/05 03:31:11;;;;;;;16.02;2.45;;;14.20;99.90;;;;;;4933917;29;20412;-75
2021/12/05 03:34:17;;;;;;;19.05;2.83;;;14.20;99.90;;;;;;4934589;29;20050;-75
2021/12/05 03:37:22;;;;;;;18.85;3.63;;;14.20;99.90;;;;;;4933727;29;20042;-75
2021/12/05 03:40:29;;;;;;;26.05;2.75;;;14.20;99.90;;;;;;4933815;29;20062;-75
2021/12/05 03:43:37;;;;;;;14.43;2.50;;;14.20;99.90;;;;;;4933633;29;20546;-76
2021/12/05 03:46:41;;;;;;;16.75;2.53;;;14.20;99.90;;;;;;4933540;29;20459;-75
2021/12/05 03:49:45;;;;;;;17.25;2.67;;;14.20;99.90;;;;;;4933769;29;20042;-75
2021/12/05 03:52:50;;;;;;;20.20;3.17;;;14.20;99.90;;;;;;4933796;29;20055;-74
2021/12/05 03:55:56;;;;;;;23.92;2.90;;;14.20;99.90;;;;;;4933356;29;20051;-76
2021/12/05 03:59:02;;;;;;;24.35;3.90;;;14.20;99.90;;;;;;4933116;29;20063;-76
2021/12/05 04:02:08;;;;;;;13.65;2.83;;;14.20;99.90;;;;;;4933507;29;20054;-76
2021/12/05 04:05:15;;;;;;;23.35;3.42;;;14.30;99.90;;;;;;4933181;29;20042;-74
2021/12/05 04:08:22;;;;;;;21.98;3.58;;;14.30;99.90;;;;;;4932910;29;20059;-74
2021/12/05 04:11:36;;;;;;;17.85;3.10;;;14.30;99.90;;;;;;4933170;29;20397;-74
2021/12/05 04:14:53;;;;;;;15.65;3.13;;;14.30;99.90;;;;;;4933768;29;20054;-75
2021/12/05 04:17:59;;;;;;;24.67;3.55;;;14.30;99.90;;;;;;4933322;29;20050;-74
2021/12/05 04:21:04;;;;;;;21.17;3.05;;;14.30;99.90;;;;;;4933116;29;20526;-74
2021/12/05 04:24:11;;;;;;;11.90;2.80;;;14.30;99.90;;;;;;4933260;29;20043;-74
2021/12/05 04:27:16;;;;;;;18.98;3.00;;;14.30;99.90;;;;;;4932776;29;20059;-76
2021/12/05 04:30:23;;;;;;;15.75;3.15;;;14.30;99.90;;;;;;4932894;29;20156;-74
2021/12/05 04:33:29;;;;;;;16.95;3.28;;;14.30;99.90;;;;;;4933377;29;20055;-74
2021/12/05 04:36:35;;;;;;;28.23;3.10;;;14.30;99.90;;;;;;4932877;29;20372;-74
2021/12/05 04:39:40;;;;;;;19.23;3.95;;;14.30;99.90;;;;;;4932852;29;20047;-74
2021/12/05 04:42:45;;;;;;;28.67;3.35;;;14.30;99.90;;;;;;4932774;29;20058;-75
2021/12/05 04:45:51;;;;;;;24.20;2.80;;;14.30;99.90;;;;;;4932728;29;20074;-74
2021/12/05 04:48:57;;;;;;;22.67;2.88;;;14.30;99.90;;;;;;4932769;29;20047;-76
2021/12/05 04:52:03;;;;;;;14.43;2.55;;;14.40;99.90;;;;;;4932905;29;20042;-74
2021/12/05 04:55:08;;;;;;;16.13;2.63;;;14.30;99.90;;;;;;4932618;29;20042;-74
2021/12/05 04:58:12;;;;;;;15.50;2.53;;;14.40;99.90;;;;;;4932525;29;20043;-74
2021/12/05 05:01:16;;;;;;;20.05;2.95;;;14.40;99.90;;;;;;4932983;29;20059;-74
2021/12/05 05:07:29;;;;;;;22.42;3.47;;;14.40;99.90;;;;;;4937171;29;20055;-76
2021/12/05 05:10:34;;;;;;;33.15;3.83;;;14.40;99.90;;;;;;4937228;29;20042;-76
2021/12/05 05:13:39;;;;;;;16.77;2.78;;;14.40;99.90;;;;;;4937240;29;20058;-76
2021/12/05 05:16:43;;;;;;;19.08;2.92;;;14.40;99.90;;;;;;4937046;29;20046;-77
2021/12/05 05:19:54;;;;;;;20.02;3.15;;;14.40;99.90;;;;;;4936989;29;20046;-73
2021/12/05 05:49:11;;;;;;;11.75;1.63;;;13.50;99.90;;;;;;4935698;29;20055;-74
2021/12/05 05:52:17;;;;;;;7.55;1.55;;;13.40;99.90;;;;;;4936555;29;20054;-74
2021/12/05 05:55:22;;;;;;;2.75;0.98;;;13.20;99.90;;;;;;4936608;29;20071;-76
2021/12/05 05:58:48;;;;;;;5.25;1.20;;;13.10;99.90;;;;;;4936376;29;20051;-75
2021/12/05 06:04:58;;;;;;;8.07;1.70;;;12.90;99.90;;;;;;4936140;29;20047;-75
2021/12/05 06:08:02;;;;;;;7.05;1.25;;;12.80;99.90;;;;;;4936449;29;20227;-76
2021/12/05 06:11:09;;;;;;;5.65;1.30;;;12.70;99.90;;;;;;4936461;29;20043;-76
2021/12/05 06:14:13;;;;;;;5.57;1.45;;;12.70;99.90;;;;;;4935748;29;20043;-76
2021/12/05 06:17:18;;;;;;;5.25;1.25;;;12.80;99.90;;;;;;4936288;29;20047;-75
2021/12/05 06:20:26;;;;;;;3.92;1.33;;;12.80;99.90;;;;;;4935964;29;20055;-75
2021/12/05 06:23:31;;;;;;;7.07;1.20;;;12.80;99.90;;;;;;4935810;29;20236;-77
2021/12/05 06:26:36;;;;;;;8.18;1.00;;;12.70;99.90;;;;;;4935971;29;20051;-74
2021/12/05 06:29:47;;;;;;;5.18;1.33;;;12.70;99.90;;;;;;4935792;29;20404;-76
2021/12/05 06:40:00;;;;;;;7.40;1.40;;;12.60;99.90;;;;;;4935501;29;20050;-75
2021/12/05 06:45:59;;;;;;;7.85;1.60;;;12.50;99.90;;;;;;4935627;29;20051;-76
2021/12/05 06:46:33;;;;;;;5.45;1.20;;;12.50;99.90;;;;;;4935217;29;20062;-75
2021/12/05 06:49:39;;;;;;;4.80;1.30;;;12.50;99.90;;;;;;4935257;29;20063;-76
2021/12/05 06:52:44;;;;;;;7.22;1.25;;;12.50;99.90;;;;;;4935316;29;20039;-76
2021/12/05 06:55:48;;;;;;;3.63;1.13;;;12.50;99.90;;;;;;4935617;29;20688;-75
2021/12/05 06:58:52;;;;;;;11.82;1.80;;;12.50;99.90;;;;;;4935217;29;20195;-76
2021/12/05 07:01:57;;;;;;;8.43;2.03;;;12.60;99.90;;;;;;4935224;29;20050;-75
2021/12/05 07:05:38;;;;;;;6.25;2.00;;;12.60;99.90;;;;;;4935141;29;20047;-76
2021/12/05 07:08:29;;;;;;;9.85;2.40;;;12.60;99.90;;;;;;4934935;29;20054;-77
2021/12/05 07:11:48;;;;;;;7.53;2.33;;;12.60;99.90;;;;;;4934823;29;20047;-74
2021/12/05 07:21:31;;;;;;;6.93;2.38;;;12.30;99.90;;;;;;4934841;29;20074;-76
2021/12/05 07:41:13;;;;;;;5.88;1.60;;;12.00;99.90;;;;;;4934373;29;20046;-77
2021/12/05 07:44:17;;;;;;;5.63;1.85;;;12.00;99.90;;;;;;4934439;29;20043;-78
2021/12/05 07:47:26;;;;;;;4.45;1.80;;;11.90;99.90;;;;;;4934468;29;20051;-79
2021/12/05 07:50:41;;;;;;;4.30;1.60;;;11.90;99.90;;;;;;4934382;29;20039;-76
2021/12/05 07:54:07;;;;;;;5.85;1.98;;;11.90;99.90;;;;;;4934255;29;20050;-75
2021/12/05 08:16:56;;;;;;;11.30;3.60;;;12.50;99.90;;;;;;4934223;29;20042;-72
2021/12/05 08:20:00;;;;;;;6.65;2.08;;;12.50;99.90;;;;;;4933669;29;20047;-73
2021/12/05 08:23:05;;;;;;;7.05;2.63;;;12.40;99.90;;;;;;4934025;29;20042;-73
2021/12/05 08:26:15;;;;;;;3.80;1.70;;;12.40;99.90;;;;;;4933106;29;20428;-73
2021/12/05 08:29:30;;;;;;;5.70;2.28;;;12.40;99.90;;;;;;4933812;29;20062;-73
2021/12/05 08:32:50;;;;;;;6.85;2.45;;;12.30;99.90;;;;;;4933749;29;20043;-73
2021/12/05 08:40:27;;;;;;;6.97;2.58;;;12.30;99.90;;;;;;4930308;29;20051;-72
2021/12/05 09:08:33;;;;;;;7.10;2.50;;;12.50;99.90;;;;;;4937736;29;20059;-73
2021/12/05 09:30:57;;;;;;;11.70;6.28;;;12.90;99.90;;;;;;4937063;29;20298;-73
2021/12/05 10:11:22;;;;;;;18.98;12.00;;;13.20;99.90;;;;;;4936078;29;20071;-70
2021/12/05 10:18:25;;;;;;;18.35;11.93;;;13.30;99.90;;;;;;4935731;29;20042;-74
2021/12/05 10:36:22;;;;;;;26.73;13.48;;;13.80;99.90;;;;;;4923808;29;20067;-72
2021/12/05 10:39:23;;;;;;;25.23;13.98;;;13.70;99.90;;;;;;4935279;29;20514;-72
2021/12/05 10:42:43;;;;;;;23.23;14.30;;;13.70;99.90;;;;;;4935410;29;20525;-72
2021/12/05 10:45:52;;;;;;;26.88;16.35;;;13.70;99.90;;;;;;4935362;29;20071;-73
2021/12/05 10:49:00;;;;;;;30.20;13.35;;;14.00;99.90;;;;;;4935214;29;20054;-72
2021/12/05 10:52:12;;;;;;;27.13;12.02;;;14.30;99.90;;;;;;4935211;29;20043;-71
2021/12/05 10:55:30;;;;;;;26.33;13.20;;;14.40;99.90;;;;;;4935601;29;20063;-73
2021/12/05 10:58:46;;;;;;;25.13;14.35;;;14.50;99.90;;;;;;4935214;29;20065;-71
2021/12/05 11:01:56;;;;;;;24.35;13.93;;;14.40;99.90;;;;;;4935205;29;20055;-74
2021/12/05 11:05:01;;;;;;;26.23;13.18;;;14.40;99.90;;;;;;4935071;29;20047;-72
2021/12/05 11:08:25;;;;;;;22.70;12.65;;;14.40;99.90;;;;;;4934940;29;20058;-72
2021/12/05 11:11:30;;;;;;;29.90;12.43;;;14.60;99.90;;;;;;4935060;29;20051;-71
2021/12/05 11:15:01;;;;;;;25.23;11.02;;;14.70;99.90;;;;;;4934946;29;20046;-72
2021/12/05 11:18:05;;;;;;;24.65;8.75;;;14.80;99.90;;;;;;4934618;29;20051;-72
2021/12/05 11:21:32;;;;;;;20.27;8.73;;;14.90;99.90;;;;;;4935019;29;20047;-71
2021/12/05 11:24:43;;;;;;;22.90;8.10;;;15.10;99.90;;;;;;4934794;29;20050;-71
2021/12/05 11:27:48;;;;;;;22.02;7.53;;;15.10;99.90;;;;;;4934504;29;20058;-71
2021/12/05 11:30:52;;;;;;;16.33;7.00;;;15.00;99.90;;;;;;4934509;29;20047;-72
2021/12/05 11:33:57;;;;;;;24.23;6.70;;;15.00;99.90;;;;;;4934328;29;20407;-72
2021/12/05 11:37:02;;;;;;;21.55;6.55;;;15.00;99.90;;;;;;4934712;29;20055;-71
2021/12/05 11:40:07;;;;;;;29.10;8.43;;;14.90;99.90;;;;;;4934623;29;20058;-72
2021/12/05 11:43:18;;;;;;;23.40;7.03;;;14.90;99.90;;;;;;4934664;29;20498;-72
2021/12/05 11:46:34;;;;;;;;;;;14.90;99.90;;;;;;4934932;29;20058;-73
2021/12/05 11:49:38;;;;;;;24.77;7.25;;;14.90;99.90;;;;;;4934288;29;20295;-71
2021/12/05 11:52:42;;;;;;;15.35;5.68;;;14.90;99.90;;;;;;4934525;29;20055;-73
2021/12/05 11:55:46;;;;;;;20.92;6.70;;;15.00;99.90;;;;;;4933385;29;20075;-73
2021/12/05 11:59:04;;;;;;;20.67;7.40;;;15.00;99.90;;;;;;4934333;29;20050;-72
2021/12/05 12:02:17;;;;;;;16.17;5.45;;;15.00;99.30;;;;;;4934178;29;20113;-72
2021/12/05 12:05:34;;;;;;;20.00;5.75;;;15.00;98.80;;;;;;4934253;29;20051;-73
2021/12/05 12:08:38;;;;;;;22.35;5.55;;;15.00;98.70;;;;;;4933982;29;20062;-73
2021/12/05 12:11:42;;;;;;;22.35;5.22;;;15.00;98.30;;;;;;4934054;29;20047;-72
2021/12/05 12:14:46;;;;;;;13.07;4.70;;;15.00;98.30;;;;;;4934093;29;20129;-73
2021/12/05 12:17:57;;;;;;;13.80;3.97;;;15.00;98.40;;;;;;4933999;29;20042;-73
2021/12/05 12:21:06;;;;;;;27.65;6.82;;;15.00;98.60;;;;;;4934161;29;20396;-74
2021/12/05 12:24:10;;;;;;;19.00;6.35;;;15.10;99.00;;;;;;4933206;29;20050;-73
2021/12/05 12:27:14;;;;;;;18.42;5.68;;;15.10;98.80;;;;;;4934032;29;20047;-73
2021/12/05 12:30:25;;;;;;;25.30;11.82;;;15.10;98.70;;;;;;4934246;29;20064;-73
2021/12/05 12:33:36;;;;;;;23.65;6.80;;;15.10;98.50;;;;;;4933183;29;20047;-71
2021/12/05 12:36:50;;;;;;;19.00;6.53;;;15.10;98.40;;;;;;4933863;29;20055;-73
2021/12/05 12:39:54;;;;;;;25.13;5.30;;;15.10;98.50;;;;;;4933611;29;20039;-72
2021/12/05 12:42:58;;;;;;;16.67;4.18;;;15.00;98.10;;;;;;4933514;29;20050;-73
2021/12/05 12:46:52;;;;;;;15.32;5.65;;;15.10;98.20;;;;;;4933575;29;20050;-73
2021/12/05 12:50:19;;;;;;;16.42;4.15;;;15.00;97.90;;;;;;4932945;29;20054;-73
2021/12/05 12:53:26;;;;;;;16.42;5.10;;;15.00;97.80;;;;;;4932615;29;20046;-73
2021/12/05 12:56:31;;;;;;;20.67;4.70;;;15.00;97.70;;;;;;4933654;29;20050;-72
2021/12/05 12:59:46;;;;;;;24.40;5.75;;;15.00;97.50;;;;;;4933818;29;20043;-74
2021/12/05 13:03:01;;;;;;;14.82;3.92;;;15.00;97.10;;;;;;4933691;29;20051;-73
2021/12/05 13:13:27;;;;;;;22.70;6.75;;;14.90;97.40;;;;;;4933669;29;20055;-73
2021/12/05 13:16:35;;;;;;;15.43;5.55;;;14.80;97.30;;;;;;4933366;29;20051;-73
2021/12/05 13:19:58;;;;;;;21.55;4.70;;;14.80;97.40;;;;;;4933503;29;20043;-74
2021/12/05 13:23:05;;;;;;;19.38;5.95;;;14.80;97.10;;;;;;4934565;29;20046;-74
2021/12/05 13:26:16;;;;;;;15.70;6.30;;;14.70;97.10;;;;;;4936187;29;20047;-72
2021/12/05 13:29:23;;;;;;;14.95;6.40;;;14.70;97.40;;;;;;4938060;29;20058;-71
2021/12/05 13:32:30;;;;;;;22.55;7.10;;;14.70;97.50;;;;;;4937071;29;20039;-72
2021/12/05 13:35:36;;;;;;;16.15;4.47;;;14.70;97.30;;;;;;4936828;29;20512;-73
2021/12/05 13:38:40;;;;;;;15.63;4.85;;;14.70;96.80;;;;;;4936235;29;20043;-73
2021/12/05 13:42:00;;;;;;;12.98;4.75;;;14.70;96.60;;;;;;4936815;29;20043;-74
2021/12/05 13:45:42;;;;;;;21.75;5.32;;;14.70;96.60;;;;;;4936685;29;20067;-73
2021/12/05 13:48:46;;;;;;;19.85;4.65;;;14.70;96.40;;;;;;4936511;29;20396;-74
2021/12/05 13:51:50;;;;;;;16.98;4.95;;;14.60;96.50;;;;;;4936771;29;20042;-73
2021/12/05 13:55:39;;;;;;;18.67;5.93;;;14.60;96.30;;;;;;4936741;29;20396;-73
2021/12/05 13:58:47;;;;;;;32.40;11.23;;;14.60;96.20;;;;;;4935601;29;20050;-73
2021/12/05 14:01:51;;;;;;;30.63;12.27;;;14.60;96.00;;;;;;4936492;29;20047;-73
2021/12/05 14:04:56;;;;;;;24.77;11.00;;;14.60;96.20;;;;;;4936637;29;20155;-73
2021/12/05 14:08:00;;;;;;;33.67;9.77;;;14.50;96.30;;;;;;4936150;29;20071;-73
2021/12/05 14:11:04;;;;;;;47.85;24.77;;;14.50;96.40;;;;;;4936323;29;20043;-72
2021/12/05 14:14:09;;;;;;;48.88;25.52;;;14.50;96.40;;;;;;4936215;29;20515;-74
2021/12/05 14:17:22;;;;;;;29.85;13.20;;;14.50;96.20;;;;;;4936003;29;20047;-75
2021/12/05 14:20:27;;;;;;;26.92;7.72;;;14.50;96.30;;;;;;4936359;29;20535;-74
2021/12/05 14:23:31;;;;;;;19.35;7.15;;;14.50;96.40;;;;;;4934936;29;20042;-74
2021/12/05 14:26:39;;;;;;;28.17;10.88;;;14.40;96.50;;;;;;4936096;29;20389;-73
2021/12/05 14:29:44;;;;;;;21.80;6.95;;;14.40;96.90;;;;;;4935050;29;20067;-74
2021/12/05 14:32:58;;;;;;;21.52;8.10;;;14.40;97.00;;;;;;4935913;29;20051;-73
2021/12/05 14:36:02;;;;;;;15.85;5.53;;;14.30;97.10;;;;;;4935789;29;20078;-73
2021/12/05 14:39:12;;;;;;;25.33;6.40;;;14.30;98.10;;;;;;4935895;29;20530;-73
2021/12/05 14:42:23;;;;;;;21.05;6.63;;;14.20;99.40;;;;;;4935894;29;20056;-72
2021/12/05 14:45:30;;;;;;;28.90;11.13;;;14.10;99.90;;;;;;4935357;29;20046;-71
2021/12/05 14:48:35;;;;;;;25.70;7.03;;;13.90;99.90;;;;;;4935262;29;20054;-72
2021/12/05 14:51:40;;;;;;;19.55;8.30;;;13.80;99.40;;;;;;4935400;29;20191;-71
2021/12/05 14:54:45;;;;;;;26.45;10.57;;;13.60;99.60;;;;;;4935356;29;20063;-72
2021/12/05 14:57:57;;;;;;;31.75;13.27;;;13.50;99.90;;;;;;4935258;29;20062;-73
2021/12/05 15:01:02;;;;;;;25.92;12.77;;;13.30;99.90;;;;;;4935093;29;20046;-72
2021/12/05 15:04:09;;;;;;;22.08;9.90;;;13.30;99.90;;;;;;4935211;29;20059;-72
2021/12/05 15:07:14;;;;;;;21.00;9.35;;;13.20;99.90;;;;;;4934800;29;20043;-72
2021/12/05 15:10:20;;;;;;;28.67;13.15;;;13.20;99.90;;;;;;4935302;29;20067;-72
2021/12/05 15:13:24;;;;;;;31.95;11.68;;;13.10;99.90;;;;;;4935279;29;20354;-73
2021/12/05 15:16:29;;;;;;;25.40;8.65;;;13.00;99.90;;;;;;4935018;29;20051;-73
2021/12/05 15:19:36;;;;;;;27.77;10.85;;;12.90;99.90;;;;;;4934830;29;20109;-72
2021/12/05 15:22:43;;;;;;;22.95;9.93;;;12.90;99.90;;;;;;4935147;29;20046;-72
2021/12/05 15:25:47;;;;;;;31.10;14.30;;;13.00;99.90;;;;;;4935072;29;20051;-71
2021/12/05 15:29:00;;;;;;;28.08;12.50;;;12.90;99.90;;;;;;4933819;29;20055;-72
2021/12/05 15:32:05;;;;;;;26.27;11.88;;;12.90;99.90;;;;;;4934703;29;20046;-72
2021/12/05 15:35:15;;;;;;;28.88;13.60;;;12.90;99.90;;;;;;4934305;29;20082;-73
2021/12/05 15:38:24;;;;;;;33.30;14.05;;;13.00;99.90;;;;;;4934595;29;20042;-72
2021/12/05 15:41:29;;;;;;;28.75;12.55;;;13.10;99.90;;;;;;4934541;29;20042;-73
2021/12/05 15:44:39;;;;;;;32.05;14.23;;;13.00;99.90;;;;;;4934483;29;20369;-73
2021/12/05 15:47:46;;;;;;;40.03;14.55;;;12.90;99.90;;;;;;4934045;29;20404;-73
2021/12/05 15:50:51;;;;;;;34.08;14.05;;;12.90;99.90;;;;;;4934565;29;20071;-73
2021/12/05 15:53:58;;;;;;;32.90;14.25;;;12.80;99.90;;;;;;4934258;29;20047;-74
2021/12/05 15:57:16;;;;;;;33.78;17.58;;;12.80;99.90;;;;;;4934363;29;20043;-71
2021/12/05 16:00:30;;;;;;;40.47;18.40;;;12.80;99.90;;;;;;4934105;29;20070;-73
2021/12/05 16:03:47;;;;;;;36.42;17.60;;;12.70;99.90;;;;;;4934176;29;20043;-73
2021/12/05 16:06:52;;;;;;;36.25;17.15;;;12.70;99.90;;;;;;4934083;29;20051;-72
2021/12/05 16:10:12;;;;;;;36.67;17.13;;;12.80;99.90;;;;;;4933953;29;20054;-72
2021/12/05 16:13:20;;;;;;;28.67;11.00;;;12.80;99.90;;;;;;4934447;29;20050;-72
2021/12/05 16:16:28;;;;;;;29.90;14.43;;;12.90;99.90;;;;;;4933982;29;20530;-72
2021/12/05 16:19:35;;;;;;;32.28;15.75;;;12.90;99.90;;;;;;4934159;29;20066;-74
2021/12/05 16:23:14;;;;;;;38.97;18.15;;;12.90;99.90;;;;;;4934125;29;20050;-72
2021/12/05 16:26:28;;;;;;;38.83;16.80;;;13.00;99.90;;;;;;4933704;29;20055;-73
2021/12/05 16:29:36;;;;;;;28.73;17.20;;;12.90;99.90;;;;;;4933759;29;20063;-72
2021/12/05 16:32:40;;;;;;;32.67;18.35;;;12.90;99.90;;;;;;4932631;29;20055;-72
2021/12/05 16:35:49;;;;;;;37.92;19.13;;;12.90;99.90;;;;;;4930494;29;20074;-73
2021/12/05 16:38:53;;;;;;;47.60;27.70;;;12.80;99.90;;;;;;4930756;29;20047;-73
2021/12/05 16:42:01;;;;;;;48.70;26.20;;;12.80;99.90;;;;;;4932531;29;20074;-75
2021/12/05 16:45:05;;;;;;;42.15;22.55;;;12.70;99.90;;;;;;4932786;29;20066;-73
2021/12/05 16:48:15;;;;;;;53.25;31.13;;;12.70;99.90;;;;;;4932893;29;20063;-74
2021/12/05 16:51:35;;;;;;;55.80;36.15;;;12.50;99.90;;;;;;4933714;29;20230;-73
2021/12/05 16:54:46;;;;;;;63.22;35.95;;;12.40;99.90;;;;;;4933359;29;20043;-77
2021/12/05 16:57:57;;;;;;;75.43;45.45;;;12.30;99.90;;;;;;4933960;29;20062;-76
2021/12/05 17:01:01;;;;;;;47.30;29.73;;;12.20;99.90;;;;;;4937538;29;20051;-76
2021/12/05 17:04:05;;;;;;;48.28;28.77;;;12.20;99.90;;;;;;4936399;29;20047;-75
2021/12/05 17:07:15;;;;;;;51.08;29.20;;;12.30;99.90;;;;;;4937201;29;20046;-75
2021/12/05 17:10:25;;;;;;;53.30;28.40;;;12.30;99.90;;;;;;4937092;29;20046;-76
2021/12/05 17:13:35;;;;;;;53.15;29.38;;;12.30;99.90;;;;;;4936202;29;20055;-77
2021/12/05 17:16:41;;;;;;;45.08;28.00;;;12.30;99.90;;;;;;4937271;29;20063;-76
2021/12/05 17:19:48;;;;;;;51.28;29.48;;;12.40;99.90;;;;;;4936887;29;20038;-75
2021/12/05 17:23:00;;;;;;;39.42;26.30;;;12.40;99.90;;;;;;4937038;29;20404;-76
2021/12/05 17:26:19;;;;;;;45.05;25.45;;;12.40;99.90;;;;;;4937506;29;20055;-76
2021/12/05 17:29:32;;;;;;;43.72;25.75;;;12.40;99.90;;;;;;4936632;29;20059;-76
2021/12/05 17:32:35;;;;;;;43.28;27.48;;;12.40;99.90;;;;;;4936670;29;20503;-76
2021/12/05 17:35:40;;;;;;;50.00;29.85;;;12.40;99.90;;;;;;4936370;29;20059;-76
2021/12/05 17:38:44;;;;;;;53.78;32.38;;;12.30;99.90;;;;;;4936343;29;20535;-78
2021/12/05 17:41:52;;;;;;;53.95;31.30;;;12.20;99.90;;;;;;4936417;29;20054;-75
2021/12/05 17:44:59;;;;;;;54.20;30.30;;;12.10;99.90;;;;;;4936246;29;20047;-75
2021/12/05 17:48:07;;;;;;;52.70;31.15;;;12.10;99.90;;;;;;4936575;29;20091;-77
2021/12/05 17:51:11;;;;;;;62.13;37.35;;;12.10;99.90;;;;;;4936673;29;20058;-77
2021/12/05 17:54:26;;;;;;;51.33;30.75;;;12.00;99.90;;;;;;4936364;29;20043;-75
2021/12/05 17:57:40;;;;;;;51.53;28.33;;;12.00;99.90;;;;;;4936724;29;20055;-77
2021/12/05 18:00:57;;;;;;;55.25;29.17;;;12.00;99.90;;;;;;4936591;29;20503;-77
2021/12/05 18:04:02;;;;;;;51.72;32.63;;;12.00;99.90;;;;;;4936298;29;20058;-76
2021/12/05 18:07:06;;;;;;;58.75;33.00;;;12.10;99.90;;;;;;4935551;29;20046;-76
2021/12/05 18:10:13;;;;;;;43.25;25.08;;;12.00;99.90;;;;;;4935336;29;20059;-76
2021/12/05 18:13:22;;;;;;;48.20;27.05;;;11.90;99.90;;;;;;4936130;29;20051;-77
2021/12/05 18:16:27;;;;;;;51.38;26.80;;;12.00;99.90;;;;;;4935864;29;20058;-76
2021/12/05 18:19:31;;;;;;;38.90;24.00;;;11.90;99.90;;;;;;4935909;29;20043;-76
2021/12/05 18:22:35;;;;;;;42.90;25.40;;;12.00;99.90;;;;;;4936011;29;20054;-76
2021/12/05 18:25:40;;;;;;;42.55;25.65;;;12.00;99.90;;;;;;4935251;29;20054;-76
2021/12/05 18:28:49;;;;;;;42.33;26.73;;;12.10;99.90;;;;;;4935388;29;20519;-75
2021/12/05 18:31:55;;;;;;;46.67;27.02;;;12.20;99.90;;;;;;4935690;29;20470;-76
2021/12/05 18:35:00;;;;;;;53.58;28.63;;;12.20;99.90;;;;;;4935377;29;20503;-77
2021/12/05 18:38:08;;;;;;;52.97;29.70;;;12.20;99.90;;;;;;4935311;29;20051;-76
2021/12/05 18:41:14;;;;;;;54.92;31.10;;;12.10;99.90;;;;;;4935545;29;20047;-77
2021/12/05 18:44:23;;;;;;;57.50;31.08;;;12.00;99.90;;;;;;4934884;29;20042;-77
2021/12/05 18:47:27;;;;;;;48.38;30.02;;;11.90;99.90;;;;;;4935364;29;20055;-76
2021/12/05 18:50:32;;;;;;;47.47;28.13;;;11.70;99.90;;;;;;4934567;29;20047;-76
2021/12/05 18:53:37;;;;;;;48.55;30.75;;;11.70;99.90;;;;;;4935422;29;20096;-76
2021/12/05 18:56:41;;;;;;;54.65;33.28;;;11.70;99.90;;;;;;4935400;29;20055;-77
2021/12/05 18:59:49;;;;;;;64.13;37.63;;;11.50;99.90;;;;;;4935404;29;20042;-77
2021/12/05 19:06:21;;;;;;;51.97;29.58;;;11.40;99.90;;;;;;4934829;29;20059;-77
2021/12/05 19:12:48;;;;;;;41.88;24.92;;;11.20;99.90;;;;;;4934955;29;20059;-77
2021/12/05 19:15:53;;;;;;;44.60;25.80;;;11.20;99.90;;;;;;4934769;29;20047;-76
2021/12/05 19:18:58;;;;;;;46.42;25.45;;;11.30;99.90;;;;;;4934477;29;20399;-77
2021/12/05 19:22:03;;;;;;;51.30;26.55;;;11.40;99.90;;;;;;4933577;29;20070;-77
2021/12/05 19:25:18;;;;;;;40.88;24.73;;;11.50;99.90;;;;;;4934453;29;20047;-78
2021/12/05 19:28:22;;;;;;;44.13;24.63;;;11.50;99.90;;;;;;4934646;29;20435;-76
2021/12/05 19:31:27;;;;;;;36.80;21.98;;;11.50;99.90;;;;;;4934358;29;20062;-77
2021/12/05 19:34:32;;;;;;;39.97;20.45;;;11.60;99.90;;;;;;4934470;29;20050;-75
2021/12/05 19:37:37;;;;;;;31.50;16.70;;;11.60;99.90;;;;;;4934569;29;20054;-75
2021/12/05 19:40:43;;;;;;;24.55;14.45;;;11.70;99.90;;;;;;4934387;29;20408;-75
2021/12/05 19:43:47;;;;;;;24.58;12.70;;;11.70;99.90;;;;;;4934126;29;20047;-76
2021/12/05 19:46:51;;;;;;;19.20;10.77;;;11.70;99.90;;;;;;4933227;29;20055;-77
2021/12/05 19:49:56;;;;;;;20.58;10.00;;;11.70;99.90;;;;;;4933892;29;20074;-75
2021/12/05 19:53:00;;;;;;;21.88;9.55;;;11.70;99.90;;;;;;4934022;29;20047;-74
2021/12/05 19:56:07;;;;;;;15.57;8.27;;;11.70;99.90;;;;;;4934140;29;20047;-75
2021/12/05 19:59:13;;;;;;;13.52;7.55;;;11.70;99.90;;;;;;4933910;29;20507;-75
2021/12/05 20:02:18;;;;;;;20.95;10.65;;;11.70;99.90;;;;;;4934002;29;20047;-76
2021/12/05 20:05:25;;;;;;;27.58;12.88;;;11.70;99.90;;;;;;4934073;29;20231;-75
2021/12/05 20:08:30;;;;;;;25.50;15.35;;;11.70;99.90;;;;;;4933677;29;20530;-76
2021/12/05 20:11:36;;;;;;;37.05;19.75;;;11.70;99.90;;;;;;4933985;29;20046;-76
2021/12/05 20:14:40;;;;;;;34.53;19.15;;;11.70;99.90;;;;;;4933727;29;20051;-75
2021/12/05 20:17:49;;;;;;;31.25;19.52;;;11.70;99.90;;;;;;4934178;29;20050;-77
2021/12/05 20:20:56;;;;;;;38.55;21.13;;;11.70;99.90;;;;;;4933600;29;20046;-76
2021/12/05 20:24:00;;;;;;;35.50;20.17;;;11.60;99.90;;;;;;4933568;29;20043;-76
2021/12/05 20:27:06;;;;;;;33.63;19.77;;;11.70;99.90;;;;;;4933630;29;20050;-76
2021/12/05 20:30:16;;;;;;;31.33;18.95;;;11.60;99.90;;;;;;4933556;29;20054;-77
2021/12/05 20:33:20;;;;;;;37.75;20.77;;;11.60;99.90;;;;;;4932737;29;20396;-77
2021/12/05 20:36:25;;;;;;;31.85;18.55;;;11.70;99.90;;;;;;4933203;29;20051;-77
2021/12/05 20:39:29;;;;;;;31.77;18.10;;;11.70;99.90;;;;;;4933707;29;20147;-77
2021/12/05 20:42:33;;;;;;;29.98;16.92;;;11.70;99.90;;;;;;4933560;29;20054;-77
2021/12/05 20:45:39;;;;;;;29.30;16.25;;;11.60;99.90;;;;;;4933326;29;20047;-76
2021/12/05 20:48:43;;;;;;;26.85;16.02;;;11.60;99.90;;;;;;4933191;29;20046;-76
2021/12/05 20:51:48;;;;;;;33.10;17.67;;;11.50;99.90;;;;;;4933704;29;20059;-75
2021/12/05 20:54:52;;;;;;;33.50;17.92;;;11.30;99.90;;;;;;4933288;29;20047;-76
2021/12/05 20:57:56;;;;;;;32.50;17.88;;;11.20;99.90;;;;;;4932611;29;20412;-76
2021/12/05 21:01:02;;;;;;;29.50;16.70;;;11.10;99.90;;;;;;4933503;29;20066;-76
2021/12/05 21:04:07;;;;;;;31.73;17.60;;;11.10;99.90;;;;;;4933115;29;20043;-76
2021/12/05 21:07:14;;;;;;;27.58;17.35;;;11.00;99.90;;;;;;4933247;29;20042;-76
2021/12/05 21:10:29;;;;;;;30.35;18.95;;;11.00;99.90;;;;;;4933072;29;20059;-77
2021/12/05 21:13:33;;;;;;;33.78;17.48;;;11.00;99.90;;;;;;4933278;29;20121;-76
2021/12/05 21:16:38;;;;;;;36.40;18.77;;;11.00;99.90;;;;;;4933106;29;20055;-77
2021/12/05 21:19:43;;;;;;;34.50;19.85;;;11.00;99.90;;;;;;4933578;29;20050;-76
2021/12/05 21:22:47;;;;;;;34.92;19.40;;;10.90;99.90;;;;;;4933395;29;20396;-76
2021/12/05 21:25:52;;;;;;;32.03;19.98;;;10.80;99.90;;;;;;4932238;29;20510;-78
2021/12/05 21:28:56;;;;;;;35.20;20.30;;;10.80;99.90;;;;;;4932948;29;20078;-76
2021/12/05 21:32:00;;;;;;;30.05;19.55;;;10.70;99.90;;;;;;4933235;29;20055;-75
2021/12/05 21:35:04;;;;;;;29.50;18.45;;;10.60;99.90;;;;;;4932871;29;20063;-76